createdAt,value
2023-05-14T00:00:09.122Z,74.01
2023-05-14T00:05:11.260Z,73.49
2023-05-14T00:10:13.060Z,73.77
2023-05-14T00:15:14.792Z,73.84
2023-05-14T00:20:16.469Z,73.56
2023-05-14T00:25:18.144Z,73.58
2023-05-14T00:30:20.275Z,74.10
2023-05-14T00:35:22.167Z,74.79
2023-05-14T00:40:27.065Z,74.56
2023-05-14T00:45:29.235Z,73.82
2023-05-14T00:50:30.907Z,73.80
2023-05-14T00:55:32.664Z,74.98
2023-05-14T01:00:34.720Z,74.32
2023-05-14T01:05:43.648Z,74.38
2023-05-14T01:10:52.415Z,75.19
2023-05-14T01:15:57.678Z,75.73
2023-05-14T01:20:59.376Z,75.24
2023-05-14T01:26:01.061Z,75.17
2023-05-14T01:31:23.393Z,75.43
2023-05-14T01:36:25.502Z,75.49
2023-05-14T01:41:29.564Z,76.20
2023-05-14T01:46:33.133Z,77.64
2023-05-14T01:51:35.460Z,78.42
2023-05-14T01:56:37.720Z,78.52
2023-05-14T02:01:39.626Z,79.13
2023-05-14T02:06:41.362Z,78.76
2023-05-14T02:11:43.056Z,78.63
2023-05-14T02:16:44.717Z,78.20
2023-05-14T02:21:46.696Z,78.60
2023-05-14T02:26:48.506Z,78.45
2023-05-14T02:31:50.436Z,79.00
2023-05-14T02:36:52.375Z,79.44
2023-05-14T02:41:54.083Z,79.48
2023-05-14T02:46:55.828Z,80.15
2023-05-14T02:51:57.688Z,80.47
2023-05-14T02:56:59.363Z,81.14
2023-05-14T03:02:01.075Z,82.48
2023-05-14T03:07:03.514Z,83.28
2023-05-14T03:12:07.030Z,84.65
2023-05-14T03:17:09.006Z,85.09
2023-05-14T03:22:10.901Z,85.26
2023-05-14T03:27:12.577Z,85.05
2023-05-14T03:32:15.002Z,85.94
2023-05-14T03:37:16.671Z,86.19
2023-05-14T03:42:18.406Z,85.79
2023-05-14T03:47:20.084Z,85.45
2023-05-14T03:52:21.819Z,84.43
2023-05-14T03:57:23.611Z,82.98
2023-05-14T04:07:12.539Z,80.94
2023-05-14T04:12:14.368Z,80.49
2023-05-14T04:17:16.254Z,80.13
2023-05-14T04:22:17.987Z,80.10
2023-05-14T04:27:21.367Z,80.27
2023-05-14T04:32:23.340Z,79.48
2023-05-14T04:37:26.142Z,77.69
2023-05-14T04:42:27.918Z,75.39
2023-05-14T04:47:29.758Z,74.00
2023-05-14T04:52:31.547Z,72.56
2023-05-14T04:57:33.274Z,70.58
2023-05-14T05:02:35.213Z,69.24
2023-05-14T05:07:36.973Z,68.22
2023-05-14T05:12:38.917Z,67.43
2023-05-14T05:17:40.734Z,66.57
2023-05-14T05:22:42.402Z,65.93
2023-05-14T05:27:44.167Z,64.95
2023-05-14T05:32:46.249Z,63.67
2023-05-14T05:37:48.132Z,62.80
2023-05-14T05:42:49.839Z,62.11
2023-05-14T05:47:51.746Z,61.58
2023-05-14T05:52:53.427Z,60.84
2023-05-14T05:57:55.589Z,60.16
2023-05-14T06:02:57.294Z,58.47
2023-05-14T06:07:59.441Z,57.20
2023-05-14T06:13:01.187Z,54.96
2023-05-14T06:18:03.101Z,53.72
2023-05-14T06:23:04.880Z,53.14
2023-05-14T06:28:06.589Z,53.01
2023-05-14T06:33:08.312Z,51.88
2023-05-14T06:38:09.955Z,50.83
2023-05-14T06:43:11.712Z,50.23
2023-05-14T06:48:13.529Z,50.04
2023-05-14T06:53:15.657Z,49.76
2023-05-14T06:58:17.338Z,49.45
2023-05-14T07:03:19.474Z,48.79
2023-05-14T07:08:21.092Z,48.57
2023-05-14T07:13:23.315Z,47.67
2023-05-14T07:18:25.152Z,48.00
2023-05-14T07:23:26.896Z,46.74
2023-05-14T07:28:28.625Z,45.80
2023-05-14T07:33:30.374Z,45.22
2023-05-14T07:38:32.715Z,45.24
2023-05-14T07:43:34.813Z,44.46
2023-05-14T07:48:36.638Z,43.80
2023-05-14T07:53:38.410Z,43.00
2023-05-14T07:58:41.442Z,42.44
2023-05-14T08:03:43.538Z,41.94
2023-05-14T08:08:45.320Z,39.79
2023-05-14T08:13:46.969Z,39.92
2023-05-14T08:18:49.255Z,39.08
2023-05-14T08:23:50.933Z,38.29
2023-05-14T08:28:54.462Z,38.65
2023-05-14T08:33:56.416Z,39.08
2023-05-14T08:38:58.259Z,39.04
2023-05-14T08:44:14.074Z,38.61
2023-05-14T08:49:40.732Z,37.60
2023-05-14T08:54:42.699Z,36.87
2023-05-14T08:59:44.586Z,36.59
2023-05-14T09:04:47.508Z,36.44
2023-05-14T09:09:49.463Z,36.99
2023-05-14T09:14:51.373Z,36.51
2023-05-14T09:19:53.648Z,36.02
2023-05-14T09:25:26.494Z,36.13
2023-05-14T09:30:28.315Z,34.84
2023-05-14T09:35:30.010Z,34.81
2023-05-14T09:40:31.794Z,35.05
2023-05-14T09:45:35.113Z,33.75
2023-05-14T09:50:46.642Z,33.09
2023-05-14T09:55:49.350Z,32.52
2023-05-14T10:00:51.924Z,32.88
2023-05-14T10:05:56.126Z,32.46
2023-05-14T10:10:59.457Z,29.85
2023-05-14T10:16:44.645Z,30.05
2023-05-14T10:21:53.140Z,29.60
2023-05-14T10:26:55.108Z,29.73
2023-05-14T10:31:56.876Z,29.70
2023-05-14T10:37:03.036Z,29.09
2023-05-14T10:42:05.126Z,28.29
2023-05-14T10:47:07.928Z,28.31
2023-05-14T10:52:10.543Z,27.79
2023-05-14T10:57:12.665Z,28.06
2023-05-14T11:02:21.723Z,28.79
2023-05-14T11:07:43.643Z,28.33
2023-05-14T11:12:47.265Z,28.51
2023-05-14T11:17:50.748Z,28.30
2023-05-14T11:22:52.765Z,28.94
2023-05-14T11:27:58.393Z,28.72
2023-05-14T11:33:02.090Z,28.64
2023-05-14T11:38:03.947Z,28.72
2023-05-14T11:43:05.767Z,28.46
2023-05-14T11:48:15.054Z,27.97
2023-05-14T11:53:30.896Z,28.58
2023-05-14T11:58:33.885Z,28.85
2023-05-14T12:03:36.003Z,28.09
2023-05-14T12:08:37.903Z,29.01
2023-05-14T12:13:39.652Z,29.41
2023-05-14T12:18:42.585Z,29.08
2023-05-14T12:23:44.445Z,29.30
2023-05-14T12:28:47.760Z,29.21
2023-05-14T12:33:49.406Z,29.30
2023-05-14T12:38:56.897Z,29.03
2023-05-14T12:44:00.007Z,28.82
2023-05-14T12:49:01.699Z,29.76
2023-05-14T12:54:03.638Z,29.90
2023-05-14T12:59:05.303Z,29.67
2023-05-14T13:04:07.935Z,29.85
2023-05-14T13:09:09.692Z,29.33
2023-05-14T13:14:11.344Z,29.06
2023-05-14T13:19:12.990Z,28.88
2023-05-14T13:24:15.312Z,29.47
2023-05-14T13:29:16.957Z,30.09
2023-05-14T13:34:18.889Z,29.80
2023-05-14T13:39:22.760Z,30.67
2023-05-14T13:44:24.630Z,31.20
2023-05-14T13:49:26.647Z,31.49
2023-05-14T13:54:28.316Z,31.51
2023-05-14T13:59:30.093Z,31.76
2023-05-14T14:04:32.102Z,32.19
2023-05-14T14:09:35.846Z,32.69
2023-05-14T14:14:37.528Z,32.29
2023-05-14T14:19:39.307Z,31.65
2023-05-14T14:24:41.040Z,31.42
2023-05-14T14:29:42.736Z,32.17
2023-05-14T14:34:44.458Z,33.07
2023-05-14T14:39:46.165Z,33.70
2023-05-14T14:44:47.819Z,33.88
2023-05-14T14:49:49.619Z,34.43
2023-05-14T14:54:51.773Z,35.04
2023-05-14T14:59:53.487Z,36.18
2023-05-14T15:04:55.851Z,37.41
2023-05-14T15:09:57.480Z,38.65
2023-05-14T15:14:59.143Z,38.62
2023-05-14T15:20:21.018Z,39.31
2023-05-14T15:25:24.287Z,39.23
2023-05-14T15:30:26.203Z,39.80
2023-05-14T15:35:27.914Z,39.63
2023-05-14T15:40:29.773Z,39.35
2023-05-14T15:45:31.550Z,39.96
2023-05-14T15:50:33.402Z,40.25
2023-05-14T15:55:35.602Z,41.34
2023-05-14T16:00:37.356Z,42.19
2023-05-14T16:05:39.159Z,42.90
2023-05-14T16:10:40.852Z,42.79
2023-05-14T16:15:43.014Z,42.84
2023-05-14T16:20:44.765Z,42.89
2023-05-14T16:25:46.635Z,43.16
2023-05-14T16:30:48.578Z,43.29
2023-05-14T16:35:51.388Z,43.28
2023-05-14T16:40:53.006Z,43.60
2023-05-14T16:45:55.877Z,44.85
2023-05-14T16:50:59.462Z,47.60
2023-05-14T16:56:01.749Z,49.91
2023-05-14T17:01:03.522Z,50.36
2023-05-14T17:06:05.645Z,51.28
2023-05-14T17:11:07.393Z,52.76
2023-05-14T17:16:09.100Z,52.54
2023-05-14T17:21:11.001Z,53.50
2023-05-14T17:26:12.789Z,54.29
2023-05-14T17:31:14.570Z,55.48
2023-05-14T17:36:16.695Z,55.78
2023-05-14T17:41:18.379Z,56.52
2023-05-14T17:46:21.314Z,57.36
2023-05-14T17:51:22.956Z,61.01
2023-05-14T17:56:24.746Z,64.17
2023-05-14T18:01:26.569Z,66.95
2023-05-14T18:06:28.500Z,67.65
2023-05-14T18:11:33.986Z,68.79
2023-05-14T18:16:37.097Z,69.29
2023-05-14T18:21:38.824Z,69.36
2023-05-14T18:26:40.740Z,70.21
2023-05-14T18:31:42.373Z,70.38
2023-05-14T18:36:44.110Z,70.89
2023-05-14T18:41:45.851Z,70.96
2023-05-14T18:46:47.635Z,71.85
2023-05-14T18:51:49.455Z,72.20
2023-05-14T18:56:51.286Z,72.66
2023-05-14T19:01:53.382Z,73.89
2023-05-14T19:06:55.127Z,74.16
2023-05-14T19:11:56.799Z,75.70
2023-05-14T19:16:58.977Z,76.85
2023-05-14T19:22:00.724Z,77.52
2023-05-14T19:27:02.549Z,77.85
2023-05-14T19:32:05.173Z,78.11
2023-05-14T19:37:07.239Z,78.71
2023-05-14T19:42:09.028Z,79.66
2023-05-14T19:47:10.907Z,79.82
2023-05-14T19:52:12.654Z,80.35
2023-05-14T19:57:14.350Z,81.25
2023-05-14T20:02:18.438Z,81.19
2023-05-14T20:07:20.411Z,81.99
2023-05-14T20:12:22.037Z,81.91
2023-05-14T20:17:24.889Z,82.26
2023-05-14T20:22:26.716Z,82.86
2023-05-14T20:27:28.451Z,83.37
2023-05-14T20:32:30.232Z,83.84
2023-05-14T20:37:32.574Z,84.31
2023-05-14T20:42:35.098Z,84.75
2023-05-14T20:47:36.932Z,85.17
2023-05-14T20:52:38.631Z,85.61
2023-05-14T20:57:40.887Z,85.96
2023-05-14T21:02:45.483Z,86.95
2023-05-14T21:07:48.291Z,87.80
2023-05-14T21:12:54.893Z,88.81
2023-05-14T21:17:56.597Z,88.99
2023-05-14T21:22:58.333Z,88.96
2023-05-14T21:28:00.144Z,90.10
2023-05-14T21:33:03.190Z,90.20
2023-05-14T21:38:04.929Z,90.90
2023-05-14T21:43:07.149Z,91.49
2023-05-14T21:48:10.765Z,92.34
2023-05-14T21:53:13.948Z,92.70
2023-05-14T21:58:15.778Z,92.81
2023-05-14T22:03:17.533Z,92.97
2023-05-14T22:08:19.245Z,95.19
2023-05-14T22:13:20.942Z,95.39
2023-05-14T22:18:24.214Z,95.27
2023-05-14T22:23:25.871Z,94.88
2023-05-14T22:28:27.573Z,94.73
2023-05-14T22:33:29.300Z,94.25
2023-05-14T22:38:30.997Z,94.43
2023-05-14T22:43:32.723Z,94.49
2023-05-14T22:48:34.417Z,94.59
2023-05-14T22:53:36.185Z,94.83
2023-05-14T22:58:37.897Z,95.27
2023-05-14T23:03:39.691Z,96.69
2023-05-14T23:08:42.940Z,96.63
2023-05-14T23:13:50.712Z,97.40
2023-05-14T23:18:52.780Z,98.48
2023-05-14T23:24:02.398Z,98.90
2023-05-14T23:29:04.075Z,97.63
2023-05-14T23:34:06.019Z,97.38
2023-05-14T23:39:08.679Z,97.38
2023-05-14T23:44:11.120Z,97.20
2023-05-14T23:49:14.233Z,97.08
2023-05-14T23:54:17.290Z,96.49
2023-05-14T23:59:19.018Z,95.94
